createdAt,value
2022-11-28T00:01:41.468Z,1.90
2022-11-28T00:04:10.594Z,2.33
2022-11-28T00:06:41.092Z,2.10
2022-11-28T00:09:10.063Z,1.85
2022-11-28T00:11:40.686Z,1.92
2022-11-28T00:14:09.497Z,2.50
2022-11-28T00:16:39.193Z,1.95
2022-11-28T00:19:08.435Z,1.30
2022-11-28T00:21:37.020Z,1.67
2022-11-28T00:24:06.008Z,2.22
2022-11-28T00:26:36.875Z,2.38
2022-11-28T00:29:07.711Z,1.55
2022-11-28T00:31:42.812Z,1.52
2022-11-28T00:34:12.147Z,1.77
2022-11-28T00:36:40.873Z,1.35
2022-11-28T00:39:09.933Z,2.20
2022-11-28T00:41:38.393Z,1.88
2022-11-28T00:44:07.184Z,2.15
2022-11-28T00:46:35.553Z,1.63
2022-11-28T00:49:05.425Z,1.90
2022-11-28T00:51:34.949Z,2.60
2022-11-28T00:54:05.391Z,1.55
2022-11-28T00:56:36.214Z,2.28
2022-11-28T00:59:05.381Z,1.58
2022-11-28T01:01:35.934Z,2.88
2022-11-28T01:04:08.956Z,2.55
2022-11-28T01:06:39.055Z,4.45
2022-11-28T01:09:10.358Z,1.83
2022-11-28T01:11:40.317Z,1.20
2022-11-28T01:14:09.663Z,2.47
2022-11-28T01:16:38.212Z,2.38
2022-11-28T01:19:08.444Z,1.90
2022-11-28T01:21:37.068Z,2.90
2022-11-28T01:24:05.880Z,2.28
2022-11-28T01:26:34.680Z,1.88
2022-11-28T01:29:04.145Z,1.92
2022-11-28T01:31:32.615Z,1.48
2022-11-28T01:34:01.060Z,3.20
2022-11-28T01:36:31.397Z,2.40
2022-11-28T01:38:59.780Z,2.67
2022-11-28T01:41:29.682Z,2.17
2022-11-28T01:44:10.418Z,2.95
2022-11-28T01:46:38.841Z,2.30
2022-11-28T01:49:12.866Z,1.70
2022-11-28T01:51:47.427Z,1.90
2022-11-28T01:54:17.220Z,2.17
2022-11-28T01:56:51.319Z,2.35
2022-11-28T01:59:21.603Z,1.80
2022-11-28T02:01:49.984Z,1.95
2022-11-28T02:04:19.746Z,1.70
2022-11-28T02:06:49.462Z,1.20
2022-11-28T02:09:18.394Z,1.70
2022-11-28T02:12:11.392Z,2.85
2022-11-28T02:14:54.972Z,1.98
2022-11-28T02:17:36.363Z,2.33
2022-11-28T02:20:41.144Z,1.15
2022-11-28T02:23:17.003Z,1.67
2022-11-28T02:26:13.386Z,1.10
2022-11-28T02:29:14.319Z,1.42
2022-11-28T02:32:11.863Z,1.13
2022-11-28T02:34:49.151Z,1.50
2022-11-28T02:37:27.382Z,1.67
2022-11-28T02:40:07.018Z,2.38
2022-11-28T02:42:46.858Z,2.50
2022-11-28T02:45:21.814Z,1.92
2022-11-28T02:47:59.047Z,2.20
2022-11-28T02:50:33.598Z,1.63
2022-11-28T02:53:07.413Z,1.38
2022-11-28T02:55:40.338Z,2.10
2022-11-28T02:58:08.884Z,1.48
2022-11-28T03:00:40.342Z,2.67
2022-11-28T03:03:27.402Z,1.65
2022-11-28T03:06:01.611Z,1.75
2022-11-28T03:08:41.012Z,2.00
2022-11-28T03:11:16.977Z,2.58
2022-11-28T03:13:58.660Z,1.70
2022-11-28T03:16:30.172Z,1.60
2022-11-28T03:19:06.723Z,2.00
2022-11-28T03:21:41.766Z,1.85
2022-11-28T03:24:16.541Z,2.33
2022-11-28T03:26:54.651Z,1.70
2022-11-28T03:29:30.576Z,1.95
2022-11-28T03:32:04.443Z,1.48
2022-11-28T03:34:38.558Z,1.92
2022-11-28T03:37:11.233Z,1.92
2022-11-28T03:39:42.818Z,2.05
2022-11-28T03:42:14.273Z,1.20
2022-11-28T03:44:47.725Z,1.80
2022-11-28T03:47:16.674Z,1.20
2022-11-28T03:49:51.737Z,1.55
2022-11-28T03:52:25.479Z,0.90
2022-11-28T03:54:58.450Z,0.90
2022-11-28T03:57:34.507Z,0.90
2022-11-28T04:00:07.543Z,1.08
2022-11-28T04:02:49.945Z,1.40
2022-11-28T04:05:26.084Z,0.93
2022-11-28T04:08:00.029Z,1.38
2022-11-28T04:10:34.007Z,1.08
2022-11-28T04:13:08.601Z,1.48
2022-11-28T04:15:42.796Z,1.45
2022-11-28T04:18:20.286Z,1.35
2022-11-28T04:20:54.504Z,2.10
2022-11-28T04:23:25.807Z,1.13
2022-11-28T04:25:56.697Z,1.10
2022-11-28T04:28:29.287Z,1.45
2022-11-28T04:31:00.811Z,1.13
2022-11-28T04:33:33.207Z,1.75
2022-11-28T04:38:34.224Z,0.77
2022-11-28T04:41:07.920Z,1.50
2022-11-28T04:43:42.264Z,0.82
2022-11-28T04:46:15.985Z,1.83
2022-11-28T04:48:44.642Z,2.58
2022-11-28T04:51:20.815Z,1.20
2022-11-28T04:53:54.305Z,1.95
2022-11-28T04:56:26.781Z,1.83
2022-11-28T05:01:28.515Z,1.73
2022-11-28T05:03:56.970Z,2.65
2022-11-28T05:06:30.152Z,1.73
2022-11-28T05:08:59.239Z,1.92
2022-11-28T05:11:28.343Z,0.93
2022-11-28T05:13:57.493Z,0.63
2022-11-28T05:16:27.441Z,0.80
2022-11-28T05:18:55.740Z,0.40
2022-11-28T05:21:23.972Z,0.90
2022-11-28T05:23:53.698Z,1.05
2022-11-28T05:26:23.045Z,0.45
2022-11-28T05:28:53.604Z,0.70
2022-11-28T05:31:23.097Z,0.68
2022-11-28T05:33:51.756Z,0.88
2022-11-28T05:36:20.024Z,1.38
2022-11-28T05:38:48.857Z,0.65
2022-11-28T05:41:25.152Z,1.08
2022-11-28T05:43:54.094Z,1.00
2022-11-28T05:46:22.693Z,1.25
2022-11-28T05:48:52.858Z,1.23
2022-11-28T05:51:21.354Z,0.40
2022-11-28T05:53:49.608Z,0.75
2022-11-28T05:56:19.690Z,0.28
2022-11-28T05:58:49.424Z,0.47
2022-11-28T06:01:19.544Z,0.80
2022-11-28T06:03:49.709Z,0.45
2022-11-28T06:06:19.936Z,0.15
2022-11-28T06:08:51.622Z,0.57
2022-11-28T06:11:20.749Z,0.57
2022-11-28T06:13:50.743Z,0.85
2022-11-28T06:16:21.440Z,0.75
2022-11-28T06:18:53.357Z,0.65
2022-11-28T06:21:21.860Z,0.90
2022-11-28T06:23:50.572Z,0.40
2022-11-28T06:26:21.129Z,1.33
2022-11-28T06:28:51.030Z,1.55
2022-11-28T06:31:21.289Z,1.35
2022-11-28T06:33:49.806Z,0.77
2022-11-28T06:36:19.883Z,1.38
2022-11-28T06:38:49.011Z,2.30
2022-11-28T06:41:20.137Z,1.67
2022-11-28T06:43:48.338Z,1.73
2022-11-28T06:46:21.271Z,1.10
2022-11-28T06:48:50.960Z,0.60
2022-11-28T06:51:20.498Z,0.75
2022-11-28T06:53:49.033Z,0.60
2022-11-28T06:56:19.994Z,1.17
2022-11-28T06:58:49.457Z,0.45
2022-11-28T07:01:20.950Z,0.32
2022-11-28T07:03:50.095Z,0.45
2022-11-28T07:06:20.002Z,1.00
2022-11-28T07:08:48.727Z,1.23
2022-11-28T07:11:19.525Z,1.13
2022-11-28T07:13:48.364Z,0.43
2022-11-28T07:16:21.075Z,0.60
2022-11-28T07:18:49.822Z,0.52
2022-11-28T07:21:18.993Z,1.40
2022-11-28T07:23:48.154Z,0.85
2022-11-28T07:26:18.743Z,0.82
2022-11-28T07:28:48.199Z,1.38
2022-11-28T07:31:22.018Z,0.50
2022-11-28T07:33:52.254Z,0.68
2022-11-28T07:36:22.687Z,0.50
2022-11-28T07:38:52.043Z,0.82
2022-11-28T07:41:25.966Z,0.60
2022-11-28T07:43:56.788Z,0.47
2022-11-28T07:46:28.164Z,1.13
2022-11-28T07:48:56.851Z,1.25
2022-11-28T07:51:27.309Z,0.77
2022-11-28T07:53:56.394Z,1.52
2022-11-28T07:56:35.151Z,1.00
2022-11-28T07:59:13.172Z,1.35
2022-11-28T08:01:43.063Z,0.93
2022-11-28T08:04:11.678Z,1.38
2022-11-28T08:06:42.230Z,0.77
2022-11-28T08:09:12.219Z,0.88
2022-11-28T08:11:41.352Z,0.63
2022-11-28T08:14:09.745Z,0.47
2022-11-28T08:16:41.367Z,0.55
2022-11-28T08:19:11.215Z,1.08
2022-11-28T08:21:40.245Z,2.05
2022-11-28T08:24:09.175Z,1.83
2022-11-28T08:26:37.835Z,1.77
2022-11-28T08:29:06.224Z,2.33
2022-11-28T08:31:36.494Z,1.17
2022-11-28T08:34:07.427Z,1.23
2022-11-28T08:36:37.123Z,2.45
2022-11-28T08:39:24.425Z,2.10
2022-11-28T08:41:53.612Z,1.90
2022-11-28T08:44:22.142Z,1.67
2022-11-28T08:46:50.539Z,1.80
2022-11-28T08:49:19.096Z,1.75
2022-11-28T08:51:50.211Z,1.23
2022-11-28T08:54:18.424Z,0.95
2022-11-28T08:56:48.640Z,1.33
2022-11-28T08:59:17.310Z,1.58
2022-11-28T09:01:45.689Z,1.55
2022-11-28T09:04:14.102Z,1.38
2022-11-28T09:06:42.689Z,1.25
2022-11-28T09:09:14.047Z,1.58
2022-11-28T09:11:42.711Z,1.20
2022-11-28T09:14:10.988Z,2.28
2022-11-28T09:16:39.905Z,1.10
2022-11-28T09:19:09.410Z,1.60
2022-11-28T09:21:38.235Z,1.20
2022-11-28T09:24:07.442Z,1.15
2022-11-28T09:26:37.216Z,1.13
2022-11-28T09:29:05.540Z,0.90
2022-11-28T09:31:33.818Z,1.10
2022-11-28T09:34:03.611Z,1.55
2022-11-28T09:36:33.726Z,1.58
2022-11-28T09:39:02.898Z,0.82
2022-11-28T09:41:51.230Z,1.25
2022-11-28T09:44:24.990Z,2.28
2022-11-28T09:46:56.493Z,1.88
2022-11-28T09:49:38.494Z,1.33
2022-11-28T09:52:16.023Z,1.30
2022-11-28T09:54:52.499Z,0.73
2022-11-28T09:57:32.863Z,0.70
2022-11-28T10:00:01.793Z,1.35
2022-11-28T10:02:50.399Z,1.17
2022-11-28T10:05:25.940Z,1.08
2022-11-28T10:08:06.764Z,1.08
2022-11-28T10:10:48.900Z,0.93
2022-11-28T10:13:29.658Z,0.90
2022-11-28T10:16:10.770Z,0.70
2022-11-28T10:18:44.824Z,1.05
2022-11-28T10:21:26.262Z,0.98
2022-11-28T10:23:59.271Z,1.95
2022-11-28T10:26:35.873Z,1.20
2022-11-28T10:29:12.930Z,1.50
2022-11-28T10:31:45.563Z,1.40
2022-11-28T10:34:19.946Z,1.60
2022-11-28T10:36:55.616Z,0.77
2022-11-28T10:39:26.249Z,2.08
2022-11-28T10:42:14.202Z,1.25
2022-11-28T10:44:58.729Z,1.50
2022-11-28T10:47:45.395Z,2.20
2022-11-28T10:50:21.559Z,0.70
2022-11-28T10:52:57.255Z,1.88
2022-11-28T10:55:37.379Z,1.60
2022-11-28T10:58:14.036Z,1.52
2022-11-28T11:00:50.377Z,1.55
2022-11-28T11:03:20.709Z,1.83
2022-11-28T11:05:48.977Z,1.33
2022-11-28T11:08:21.940Z,1.45
2022-11-28T11:10:52.589Z,1.35
2022-11-28T11:13:24.801Z,1.45
2022-11-28T11:15:59.936Z,1.77
2022-11-28T11:18:31.397Z,1.30
2022-11-28T11:21:11.357Z,2.05
2022-11-28T11:23:39.675Z,1.65
2022-11-28T11:26:10.485Z,1.48
2022-11-28T11:28:45.123Z,1.52
2022-11-28T11:31:22.198Z,1.52
2022-11-28T11:33:54.274Z,1.67
2022-11-28T11:36:26.841Z,1.75
2022-11-28T11:39:08.333Z,1.27
2022-11-28T11:41:36.711Z,1.50
2022-11-28T11:44:30.488Z,1.98
2022-11-28T11:47:03.630Z,0.88
2022-11-28T11:49:34.050Z,1.85
2022-11-28T11:52:06.773Z,1.85
2022-11-28T11:54:35.024Z,2.05
2022-11-28T11:57:34.844Z,1.45
2022-11-28T11:59:56.893Z,1.45
2022-11-28T12:02:35.212Z,1.52
2022-11-28T12:05:10.360Z,1.85
2022-11-28T12:07:47.236Z,1.67
2022-11-28T12:10:20.499Z,1.73
2022-11-28T12:12:48.763Z,1.70
2022-11-28T12:15:22.705Z,1.45
2022-11-28T12:18:10.818Z,1.73
2022-11-28T12:20:52.734Z,2.08
2022-11-28T12:23:36.100Z,1.15
2022-11-28T12:26:11.530Z,1.45
2022-11-28T12:28:56.196Z,1.67
2022-11-28T12:31:33.908Z,1.17
2022-11-28T12:34:09.444Z,1.45
2022-11-28T12:36:45.357Z,1.95
2022-11-28T12:39:32.010Z,1.58
2022-11-28T12:42:18.180Z,1.48
2022-11-28T12:45:01.963Z,2.03
2022-11-28T12:47:41.237Z,1.00
2022-11-28T12:50:24.821Z,1.30
2022-11-28T12:52:59.994Z,1.38
2022-11-28T12:55:36.117Z,1.42
2022-11-28T12:58:12.666Z,2.08
2022-11-28T13:00:53.883Z,1.52
2022-11-28T13:03:35.523Z,1.52
2022-11-28T13:06:17.494Z,1.90
2022-11-28T13:09:02.427Z,1.95
2022-11-28T13:11:45.225Z,1.63
2022-11-28T13:14:27.288Z,1.48
2022-11-28T13:16:58.525Z,1.55
2022-11-28T13:19:35.840Z,1.63
2022-11-28T13:22:13.795Z,1.65
2022-11-28T13:24:53.412Z,2.33
2022-11-28T13:27:32.677Z,2.53
2022-11-28T13:30:16.105Z,3.25
2022-11-28T13:32:53.094Z,1.90
2022-11-28T13:35:21.839Z,1.10
2022-11-28T13:40:53.255Z,2.75
2022-11-28T13:43:28.864Z,1.80
2022-11-28T13:45:57.610Z,2.00
2022-11-28T13:49:19.876Z,1.40
2022-11-28T13:51:49.704Z,1.27
2022-11-28T13:54:45.366Z,0.90
2022-11-28T13:57:26.458Z,1.90
2022-11-28T13:59:59.751Z,1.60
2022-11-28T14:02:37.592Z,1.20
2022-11-28T14:05:23.056Z,1.75
2022-11-28T14:07:56.010Z,1.20
2022-11-28T14:10:47.699Z,1.75
2022-11-28T14:13:37.753Z,1.30
2022-11-28T14:16:19.083Z,1.83
2022-11-28T14:19:05.129Z,1.48
2022-11-28T14:21:47.279Z,1.48
2022-11-28T14:24:24.139Z,1.10
2022-11-28T14:27:00.485Z,1.17
2022-11-28T14:29:35.437Z,0.98
2022-11-28T14:34:55.511Z,1.80
2022-11-28T14:37:54.324Z,1.73
2022-11-28T14:41:05.438Z,1.38
2022-11-28T14:43:37.402Z,1.60
2022-11-28T14:46:32.750Z,1.60
2022-11-28T14:49:22.341Z,1.58
2022-11-28T14:52:38.847Z,2.60
2022-11-28T14:55:30.638Z,0.73
2022-11-28T14:58:00.733Z,1.60
2022-11-28T15:00:35.494Z,2.53
2022-11-28T15:03:17.467Z,1.15
2022-11-28T15:05:47.692Z,1.48
2022-11-28T15:08:45.568Z,1.27
2022-11-28T15:11:33.731Z,1.23
2022-11-28T15:14:10.140Z,1.10
2022-11-28T15:16:49.863Z,1.73
2022-11-28T15:19:25.949Z,1.17
2022-11-28T15:21:56.361Z,1.00
2022-11-28T15:24:28.154Z,1.35
2022-11-28T15:26:58.343Z,1.60
2022-11-28T15:29:29.169Z,1.98
2022-11-28T15:31:59.925Z,1.55
2022-11-28T15:34:31.584Z,1.65
2022-11-28T15:37:02.440Z,1.53
2022-11-28T15:39:35.105Z,2.22
2022-11-28T15:42:06.908Z,1.40
2022-11-28T15:44:37.824Z,2.22
2022-11-28T15:47:19.751Z,2.08
2022-11-28T15:52:28.325Z,1.40
2022-11-28T15:54:56.672Z,1.58
2022-11-28T15:57:30.729Z,2.78
2022-11-28T15:59:59.244Z,2.28
2022-11-28T16:02:33.565Z,2.30
2022-11-28T16:05:08.867Z,2.13
2022-11-28T16:07:42.581Z,2.40
2022-11-28T16:10:24.485Z,1.50
2022-11-28T16:12:58.510Z,1.63
2022-11-28T16:15:28.415Z,1.35
2022-11-28T16:17:58.652Z,2.42
2022-11-28T16:20:28.818Z,1.70
2022-11-28T16:23:02.726Z,1.40
2022-11-28T16:25:32.638Z,2.22
2022-11-28T16:28:01.119Z,1.15
2022-11-28T16:30:34.737Z,1.70
2022-11-28T16:33:25.856Z,1.63
2022-11-28T16:35:54.079Z,1.20
2022-11-28T16:38:25.384Z,2.42
2022-11-28T16:41:01.363Z,1.63
2022-11-28T16:43:35.817Z,1.15
2022-11-28T16:46:07.241Z,2.10
2022-11-28T16:48:39.156Z,2.53
2022-11-28T16:51:32.777Z,1.55
2022-11-28T16:54:02.060Z,2.05
2022-11-28T16:56:44.773Z,1.63
2022-11-28T16:59:15.215Z,1.85
2022-11-28T17:01:44.822Z,3.92
2022-11-28T17:04:23.556Z,1.85
2022-11-28T17:06:52.811Z,3.22
2022-11-28T17:09:21.515Z,2.45
2022-11-28T17:11:55.742Z,2.13
2022-11-28T17:14:24.208Z,2.33
2022-11-28T17:16:52.449Z,1.70
2022-11-28T17:19:22.145Z,1.67
2022-11-28T17:21:52.913Z,1.15
2022-11-28T17:24:23.335Z,2.17
2022-11-28T17:26:53.257Z,1.02
2022-11-28T17:29:22.145Z,2.10
2022-11-28T17:31:50.570Z,2.05
2022-11-28T17:34:20.612Z,1.65
2022-11-28T17:36:51.046Z,1.75
2022-11-28T17:39:20.492Z,1.75
2022-11-28T17:41:49.707Z,2.10
2022-11-28T17:44:20.296Z,2.10
2022-11-28T17:46:49.575Z,2.45
2022-11-28T17:49:18.313Z,2.80
2022-11-28T17:51:46.704Z,1.70
2022-11-28T17:54:18.411Z,2.47
2022-11-28T17:56:49.443Z,2.63
2022-11-28T17:59:19.517Z,1.60
2022-11-28T18:01:48.111Z,1.15
2022-11-28T18:04:16.453Z,2.63
2022-11-28T18:06:45.508Z,2.05
2022-11-28T18:09:15.102Z,1.60
2022-11-28T18:11:46.419Z,2.40
2022-11-28T18:14:18.205Z,1.77
2022-11-28T18:16:48.424Z,1.92
2022-11-28T18:19:18.276Z,2.45
2022-11-28T18:21:47.235Z,2.38
2022-11-28T18:24:15.697Z,1.45
2022-11-28T18:26:45.383Z,2.35
2022-11-28T18:29:14.287Z,1.65
2022-11-28T18:31:44.299Z,2.47
2022-11-28T18:34:13.109Z,1.90
2022-11-28T18:36:42.318Z,1.90
2022-11-28T18:39:14.948Z,2.13
2022-11-28T18:44:13.208Z,1.73
2022-11-28T18:46:41.841Z,1.77
2022-11-28T18:49:15.187Z,1.50
2022-11-28T18:51:44.239Z,1.90
2022-11-28T18:54:19.250Z,1.40
2022-11-28T18:56:49.239Z,1.60
2022-11-28T18:59:20.254Z,2.13
2022-11-28T19:01:48.854Z,1.90
2022-11-28T19:04:17.283Z,2.30
2022-11-28T19:06:46.222Z,1.75
2022-11-28T19:09:17.737Z,1.67
2022-11-28T19:11:46.317Z,1.73
2022-11-28T19:14:17.143Z,3.88
2022-11-28T19:16:49.687Z,3.08
2022-11-28T19:19:19.594Z,2.60
2022-11-28T19:21:50.188Z,2.35
2022-11-28T19:24:19.325Z,1.77
2022-11-28T19:26:47.808Z,1.50
2022-11-28T19:29:16.740Z,2.45
2022-11-28T19:31:46.657Z,1.50
2022-11-28T19:34:17.461Z,2.17
2022-11-28T19:36:49.232Z,2.80
2022-11-28T19:39:19.425Z,1.67
2022-11-28T19:41:49.043Z,2.75
2022-11-28T19:44:17.608Z,2.25
2022-11-28T19:46:47.916Z,1.30
2022-11-28T19:49:20.165Z,1.60
2022-11-28T19:51:50.400Z,1.73
2022-11-28T19:54:20.792Z,2.00
2022-11-28T19:56:50.532Z,1.80
2022-11-28T19:59:19.853Z,1.83
2022-11-28T20:01:50.099Z,2.10
2022-11-28T20:04:19.510Z,2.00
2022-11-28T20:06:47.797Z,2.50
2022-11-28T20:09:16.457Z,1.50
2022-11-28T20:11:45.798Z,2.03
2022-11-28T20:14:16.431Z,2.78
2022-11-28T20:16:45.486Z,2.50
2022-11-28T20:19:15.954Z,2.08
2022-11-28T20:21:46.416Z,2.07
2022-11-28T20:24:15.724Z,2.08
2022-11-28T20:26:45.848Z,1.67
2022-11-28T20:29:15.991Z,1.42
2022-11-28T20:31:46.338Z,3.13
2022-11-28T20:34:19.485Z,4.95
2022-11-28T20:36:53.264Z,3.13
2022-11-28T20:39:22.501Z,1.85
2022-11-28T20:41:50.698Z,2.50
2022-11-28T20:44:19.343Z,8.10
2022-11-28T20:46:49.613Z,2.40
2022-11-28T20:49:19.328Z,4.70
2022-11-28T20:51:47.854Z,6.18
2022-11-28T20:54:16.424Z,8.55
2022-11-28T20:57:19.805Z,11.48
2022-11-28T20:59:33.969Z,9.52
2022-11-28T21:02:02.531Z,3.22
2022-11-28T21:04:32.927Z,5.32
2022-11-28T21:07:01.321Z,5.07
2022-11-28T21:09:29.672Z,4.38
2022-11-28T21:11:59.171Z,4.13
2022-11-28T21:14:29.528Z,7.30
2022-11-28T21:16:59.552Z,2.45
2022-11-28T21:19:27.937Z,2.75
2022-11-28T21:21:57.535Z,2.10
2022-11-28T21:24:25.758Z,3.40
2022-11-28T21:26:54.941Z,2.72
2022-11-28T21:29:24.612Z,3.25
2022-11-28T21:31:53.373Z,1.98
2022-11-28T21:34:22.532Z,2.92
2022-11-28T21:36:51.064Z,1.77
2022-11-28T21:39:22.144Z,4.35
2022-11-28T21:41:52.164Z,2.35
2022-11-28T21:44:20.590Z,2.33
2022-11-28T21:46:50.155Z,3.47
2022-11-28T21:49:18.344Z,1.60
2022-11-28T21:51:46.553Z,3.60
2022-11-28T21:54:14.713Z,2.78
2022-11-28T21:56:47.431Z,3.33
2022-11-28T21:59:16.303Z,3.83
2022-11-28T22:01:45.580Z,3.17
2022-11-28T22:04:13.915Z,2.28
2022-11-28T22:06:43.234Z,3.58
2022-11-28T22:09:12.009Z,2.58
2022-11-28T22:11:40.580Z,2.45
2022-11-28T22:14:10.337Z,1.42
2022-11-28T22:16:39.189Z,2.40
2022-11-28T22:19:07.349Z,1.48
2022-11-28T22:21:56.545Z,1.80
2022-11-28T22:24:25.836Z,1.70
2022-11-28T22:26:56.888Z,1.27
2022-11-28T22:29:26.897Z,1.90
2022-11-28T22:31:55.456Z,2.20
2022-11-28T22:34:24.527Z,2.85
2022-11-28T22:36:53.115Z,2.05
2022-11-28T22:39:22.769Z,1.65
2022-11-28T22:41:50.930Z,2.45
2022-11-28T22:44:20.456Z,2.13
2022-11-28T22:46:50.444Z,2.67
2022-11-28T22:49:19.936Z,2.13
2022-11-28T22:51:48.883Z,1.52
2022-11-28T22:54:17.223Z,2.17
2022-11-28T22:56:45.445Z,2.28
2022-11-28T22:59:14.493Z,2.03
2022-11-28T23:01:43.757Z,1.35
2022-11-28T23:04:14.048Z,1.73
2022-11-28T23:06:43.066Z,2.08
2022-11-28T23:09:14.446Z,1.13
2022-11-28T23:11:43.171Z,1.27
2022-11-28T23:14:14.171Z,1.63
2022-11-28T23:16:45.273Z,1.80
2022-11-28T23:19:17.005Z,1.40
2022-11-28T23:21:47.350Z,2.30
2022-11-28T23:24:18.100Z,1.98
2022-11-28T23:26:48.140Z,2.45
2022-11-28T23:29:17.318Z,1.88
2022-11-28T23:31:47.178Z,1.58
2022-11-28T23:34:17.426Z,2.20
2022-11-28T23:36:48.327Z,3.00
2022-11-28T23:39:18.751Z,1.50
2022-11-28T23:41:47.633Z,2.72
2022-11-28T23:44:17.431Z,2.35
2022-11-28T23:46:46.527Z,1.67
2022-11-28T23:49:17.738Z,1.70
2022-11-28T23:51:46.609Z,1.50
2022-11-28T23:54:14.979Z,1.10
2022-11-28T23:56:44.939Z,1.90
2022-11-28T23:59:14.233Z,2.13
